Time;durP1;ratioP1;P1;durP2;ratioP2;P2;SDS_P1;SDS_P2;PMS_P1;PMS_P2;Temp;Humidity;BMP_temperature;BMP_pressure;BME280_temperature;BME280_humidity;BME280_pressure;Samples;Min_cycle;Max_cycle;Signal;HPM_P1;HPM_P2
2023/01/26 00:01:27;;;;;;;34.37;17.63;;;;;;;1.20;100.00;98735.16;5032541;28;20241;-77
2023/01/26 00:03:55;;;;;;;33.13;16.13;;;;;;;1.16;100.00;98737.88;5030798;28;20236;-77
2023/01/26 00:06:22;;;;;;;31.83;16.30;;;;;;;1.13;100.00;98732.72;5016497;28;20239;-77
2023/01/26 00:08:50;;;;;;;31.63;15.47;;;;;;;1.11;100.00;98734.50;5012361;28;20214;-77
2023/01/26 00:11:18;;;;;;;34.87;16.57;;;;;;;1.19;100.00;98732.59;5012065;28;20271;-77
2023/01/26 00:13:45;;;;;;;34.47;16.60;;;;;;;1.21;100.00;98721.25;5014996;28;20212;-79
2023/01/26 00:16:13;;;;;;;31.77;15.23;;;;;;;1.14;100.00;98717.06;5015212;28;20243;-77
2023/01/26 00:18:41;;;;;;;29.50;15.77;;;;;;;1.15;100.00;98713.56;5014999;28;20220;-77
2023/01/26 00:21:13;;;;;;;30.20;15.17;;;;;;;1.15;100.00;98703.16;5014445;28;20210;-77
2023/01/26 00:23:40;;;;;;;33.40;15.93;;;;;;;1.09;100.00;98705.91;5015115;28;20209;-77
2023/01/26 00:26:08;;;;;;;32.43;15.67;;;;;;;1.11;100.00;98696.31;5014922;28;20229;-77
2023/01/26 00:28:35;;;;;;;31.43;16.53;;;;;;;1.08;100.00;98699.00;5015322;28;20570;-77
2023/01/26 00:31:03;;;;;;;35.63;16.97;;;;;;;1.07;100.00;98696.41;5014004;28;20312;-77
2023/01/26 00:33:29;;;;;;;33.30;16.50;;;;;;;1.07;100.00;98691.22;5014949;28;20209;-76
2023/01/26 00:35:56;;;;;;;36.67;17.27;;;;;;;1.05;100.00;98688.63;5014625;28;20241;-77
2023/01/26 00:38:24;;;;;;;33.43;16.47;;;;;;;1.06;100.00;98685.13;5014699;28;20212;-77
2023/01/26 00:40:50;;;;;;;28.80;15.20;;;;;;;1.03;100.00;98682.63;5013706;28;20233;-77
2023/01/26 00:43:17;;;;;;;29.73;14.63;;;;;;;1.00;100.00;98682.66;5014706;28;20213;-78
2023/01/26 00:45:44;;;;;;;32.33;16.20;;;;;;;1.01;100.00;98687.00;5014249;28;20724;-77
2023/01/26 00:48:10;;;;;;;32.20;15.50;;;;;;;1.06;100.00;98679.09;5014620;28;20213;-77
2023/01/26 00:50:37;;;;;;;32.03;15.13;;;;;;;0.99;100.00;98673.16;5013728;28;20217;-77
2023/01/26 00:53:03;;;;;;;27.23;13.70;;;;;;;0.98;100.00;98671.44;5014245;28;20223;-77
2023/01/26 00:55:32;;;;;;;30.27;16.07;;;;;;;1.01;100.00;98679.22;5014268;28;20727;-79
2023/01/26 00:57:58;;;;;;;30.73;16.20;;;;;;;1.03;100.00;98667.00;5014610;28;20209;-77
2023/01/26 01:00:25;;;;;;;28.27;14.33;;;;;;;1.05;100.00;98667.81;5013455;28;20230;-78
2023/01/26 01:02:51;;;;;;;28.87;14.73;;;;;;;1.00;100.00;98668.81;5014321;28;20213;-77
2023/01/26 01:05:18;;;;;;;28.57;13.57;;;;;;;1.03;100.00;98669.59;5014223;28;20229;-77
2023/01/26 01:07:45;;;;;;;27.77;14.30;;;;;;;0.97;100.00;98669.75;5014190;28;20205;-77
2023/01/26 01:10:11;;;;;;;30.33;15.37;;;;;;;0.96;100.00;98670.63;5013383;28;20210;-77
2023/01/26 01:12:39;;;;;;;30.37;14.33;;;;;;;0.98;100.00;98670.63;5014334;28;20213;-77
2023/01/26 01:15:07;;;;;;;28.23;14.60;;;;;;;0.99;100.00;98672.31;5014420;28;20233;-77
2023/01/26 01:17:35;;;;;;;33.07;15.17;;;;;;;1.02;100.00;98675.72;5013829;28;20683;-77
2023/01/26 01:20:02;;;;;;;28.10;15.17;;;;;;;0.97;100.00;98667.16;5013185;28;20233;-77
2023/01/26 01:22:28;;;;;;;28.73;14.23;;;;;;;0.96;100.00;98673.25;5013278;28;20304;-77
2023/01/26 01:24:55;;;;;;;26.50;14.10;;;;;;;0.96;100.00;98670.63;5013457;28;20247;-77
2023/01/26 01:27:21;;;;;;;25.67;13.53;;;;;;;0.93;100.00;98668.09;5013862;28;20213;-77
2023/01/26 01:29:50;;;;;;;24.10;13.07;;;;;;;0.90;100.00;98662.97;5013144;28;20201;-77
2023/01/26 01:32:18;;;;;;;23.03;12.60;;;;;;;0.87;100.00;98663.03;5013779;28;20257;-77
2023/01/26 01:34:46;;;;;;;30.43;14.23;;;;;;;0.92;100.00;98658.59;5013716;28;20233;-78
2023/01/26 01:37:13;;;;;;;29.30;13.50;;;;;;;0.93;100.00;98662.88;5013592;28;20264;-77
2023/01/26 01:39:39;;;;;;;27.50;13.40;;;;;;;0.88;100.00;98664.78;5013010;28;20315;-78
2023/01/26 01:42:06;;;;;;;25.87;13.77;;;;;;;0.90;100.00;98655.16;5013724;28;20208;-77
2023/01/26 01:44:35;;;;;;;25.43;13.33;;;;;;;1.01;100.00;98649.72;5013274;28;20252;-77
2023/01/26 01:47:06;;;;;;;22.73;13.43;;;;;;;1.08;100.00;98639.13;5013521;28;20216;-77
2023/01/26 01:49:38;;;;;;;27.70;12.60;;;;;;;0.93;100.00;98639.47;5012679;28;20206;-77
2023/01/26 01:52:10;;;;;;;25.20;13.37;;;;;;;0.85;100.00;98645.72;5013252;28;20213;-78
2023/01/26 01:54:41;;;;;;;23.87;13.00;;;;;;;0.83;100.00;98639.72;5013464;28;20240;-77
2023/01/26 01:57:16;;;;;;;25.93;13.27;;;;;;;0.93;100.00;98647.28;5013403;28;20213;-77
2023/01/26 01:59:46;;;;;;;26.87;13.40;;;;;;;0.83;100.00;98640.59;5011690;28;20236;-78
2023/01/26 02:02:14;;;;;;;23.47;12.27;;;;;;;0.75;100.00;98645.09;5013192;28;20216;-77
2023/01/26 02:04:41;;;;;;;21.20;11.27;;;;;;;0.78;100.00;98639.84;5013115;28;20272;-77
2023/01/26 02:07:10;;;;;;;25.67;13.03;;;;;;;0.74;100.00;98635.59;5013093;28;20206;-78
2023/01/26 02:12:27;;;;;;;21.77;12.00;;;;;;;0.73;100.00;98633.88;5013133;28;20220;-78
2023/01/26 02:14:54;;;;;;;23.50;12.70;;;;;;;0.81;100.00;98631.09;5013016;28;20241;-78
2023/01/26 02:17:21;;;;;;;24.40;12.90;;;;;;;0.82;100.00;98633.69;5013206;28;20209;-77
2023/01/26 02:19:55;;;;;;;23.43;12.80;;;;;;;0.87;100.00;98621.41;5012239;28;20234;-77
2023/01/26 02:22:32;;;;;;;24.27;12.20;;;;;;;0.85;100.00;98623.19;5012900;28;20208;-77
2023/01/26 02:25:07;;;;;;;21.20;11.87;;;;;;;0.74;100.00;98625.19;5012717;28;20229;-77
2023/01/26 02:27:34;;;;;;;22.90;12.07;;;;;;;0.73;100.00;98627.81;5012988;28;20248;-77
2023/01/26 02:30:03;;;;;;;24.47;12.43;;;;;;;0.70;100.00;98623.56;5011933;28;20577;-77
2023/01/26 02:32:30;;;;;;;24.33;12.87;;;;;;;0.76;100.00;98627.75;5012554;28;20668;-77
2023/01/26 02:34:57;;;;;;;22.53;12.07;;;;;;;0.72;100.00;98626.09;5012463;28;20603;-77
2023/01/26 02:37:24;;;;;;;24.33;12.53;;;;;;;0.75;100.00;98626.88;5012512;28;20597;-77
2023/01/26 02:39:56;;;;;;;21.97;11.67;;;;;;;0.80;100.00;98624.19;5011869;28;20243;-77
2023/01/26 02:42:40;;;;;;;27.10;12.60;;;;;;;0.76;100.00;98607.81;5012623;28;20206;-77
2023/01/26 02:45:10;;;;;;;21.53;11.13;;;;;;;0.74;100.00;98616.53;5012354;28;20295;-77
2023/01/26 02:47:37;;;;;;;21.57;11.00;;;;;;;0.69;100.00;98610.56;5012394;28;20213;-77
2023/01/26 02:50:03;;;;;;;20.77;11.50;;;;;;;0.65;100.00;98609.78;5011465;28;20233;-77
2023/01/26 02:52:30;;;;;;;22.83;11.47;;;;;;;0.58;100.00;98603.03;5012469;28;20206;-77
2023/01/26 02:57:41;;;;;;;23.97;12.63;;;;;;;0.55;100.00;98608.28;5012462;28;20693;-77
2023/01/26 03:00:12;;;;;;;26.10;13.03;;;;;;;0.50;100.00;98602.31;5011333;28;20236;-77
2023/01/26 03:02:40;;;;;;;24.50;13.17;;;;;;;0.45;100.00;98601.56;5012127;28;20228;-77
2023/01/26 03:05:07;;;;;;;27.67;13.67;;;;;;;0.48;100.00;98601.50;5011937;28;20225;-77
2023/01/26 03:07:34;;;;;;;24.63;13.17;;;;;;;0.54;100.00;98600.50;5012390;28;20213;-77
2023/01/26 03:10:00;;;;;;;28.23;12.90;;;;;;;0.46;100.00;98603.28;5011882;28;20209;-77
2023/01/26 03:12:27;;;;;;;22.73;12.63;;;;;;;0.50;100.00;98601.47;5011974;28;20713;-77
2023/01/26 03:17:36;;;;;;;25.03;12.80;;;;;;;0.56;100.00;98591.78;5011571;28;20688;-77
2023/01/26 03:28:21;;;;;;;24.47;11.63;;;;;;;0.46;100.00;98577.28;4978763;28;20642;-77
2023/01/26 03:30:47;;;;;;;22.37;11.70;;;;;;;0.49;100.00;98577.22;5011113;28;20233;-77
2023/01/26 03:33:15;;;;;;;25.13;12.80;;;;;;;0.51;100.00;98575.41;5011745;28;20224;-77
2023/01/26 03:35:42;;;;;;;23.57;12.70;;;;;;;0.50;100.00;98573.72;5011608;28;20229;-77
2023/01/26 03:38:08;;;;;;;24.83;12.87;;;;;;;0.49;100.00;98564.22;5011853;28;20213;-77
2023/01/26 03:57:01;;;;;;;21.50;11.03;;;;;;;0.49;100.00;98561.59;5011572;28;20212;-77
2023/01/26 03:59:37;;;;;;;23.33;12.83;;;;;;;0.49;100.00;98572.00;5011017;28;20220;-77
2023/01/26 04:10:18;;;;;;;26.67;12.63;;;;;;;0.38;100.00;98567.94;5011027;28;20595;-77
2023/01/26 04:23:38;;;;;;;25.93;13.30;;;;;;;0.38;100.00;98573.97;5007998;28;20235;-77
2023/01/26 04:26:04;;;;;;;27.87;14.07;;;;;;;0.42;100.00;98580.84;5010974;28;20240;-77
2023/01/26 04:28:31;;;;;;;30.93;14.30;;;;;;;0.36;100.00;98578.38;5011121;28;20227;-77
2023/01/26 04:30:57;;;;;;;28.43;15.57;;;;;;;0.24;100.00;98570.84;5010994;28;20213;-77
2023/01/26 04:33:24;;;;;;;27.00;13.20;;;;;;;0.22;100.00;98570.03;5011132;28;20214;-77
2023/01/26 04:35:50;;;;;;;27.40;13.47;;;;;;;0.28;100.00;98569.03;5011059;28;20232;-77
2023/01/26 04:38:18;;;;;;;27.57;13.87;;;;;;;0.29;100.00;98558.59;5010899;28;20212;-77
2023/01/26 04:40:45;;;;;;;29.13;14.57;;;;;;;0.30;100.00;98560.31;5011138;28;20718;-77
2023/01/26 04:43:11;;;;;;;30.50;14.57;;;;;;;0.25;100.00;98561.31;5011117;28;20272;-77
2023/01/26 04:45:37;;;;;;;27.87;14.07;;;;;;;0.26;100.00;98563.84;5033028;23;20232;-82
2023/01/26 04:48:05;;;;;;;27.80;14.77;;;;;;;0.30;100.00;98560.31;5030601;28;20227;-82
2023/01/26 04:50:31;;;;;;;31.40;14.37;;;;;;;0.26;100.00;98557.81;5029909;28;20216;-81
2023/01/26 04:52:57;;;;;;;30.53;14.07;;;;;;;0.28;100.00;98556.91;5030632;28;20592;-81
2023/01/26 04:55:25;;;;;;;26.27;13.10;;;;;;;0.29;100.00;98550.81;5030812;28;20598;-81
2023/01/26 04:57:52;;;;;;;25.30;12.90;;;;;;;0.21;100.00;98549.25;5030889;28;20220;-82
2023/01/26 05:00:19;;;;;;;32.27;14.63;;;;;;;0.21;100.00;98550.13;5033642;28;20228;-82
2023/01/26 05:02:45;;;;;;;26.57;13.47;;;;;;;0.20;100.00;98545.78;5034145;28;20670;-82
2023/01/26 05:05:12;;;;;;;29.87;13.90;;;;;;;0.15;100.00;98545.06;5033863;28;20737;-81
2023/01/26 05:07:38;;;;;;;27.73;13.40;;;;;;;0.20;100.00;98548.38;5033899;28;20580;-81
2023/01/26 05:10:06;;;;;;;26.03;13.90;;;;;;;0.21;100.00;98547.53;5033836;28;20205;-81
2023/01/26 05:12:33;;;;;;;28.73;13.70;;;;;;;0.18;100.00;98539.78;5033980;28;20209;-81
2023/01/26 05:15:00;;;;;;;23.90;11.87;;;;;;;0.13;100.00;98554.63;5034136;28;20243;-81
2023/01/26 05:17:26;;;;;;;26.30;13.80;;;;;;;0.07;100.00;98544.34;5033835;28;20208;-81
2023/01/26 05:19:53;;;;;;;23.60;12.37;;;;;;;0.14;100.00;98543.31;5033450;28;20212;-81
2023/01/26 05:22:19;;;;;;;29.40;13.83;;;;;;;0.16;100.00;98551.97;5033590;28;20679;-81
2023/01/26 05:24:46;;;;;;;26.47;12.73;;;;;;;0.21;100.00;98546.66;5033454;28;20213;-81
2023/01/26 05:27:21;;;;;;;23.77;12.23;;;;;;;0.18;100.00;98557.97;5033801;28;20224;-81
2023/01/26 05:29:50;;;;;;;24.30;12.13;;;;;;;0.16;100.00;98551.97;5033616;28;20207;-81
2023/01/26 05:32:17;;;;;;;30.60;13.90;;;;;;;0.14;100.00;98556.31;5033757;28;20590;-82
2023/01/26 05:34:43;;;;;;;26.07;13.83;;;;;;;0.18;100.00;98555.38;5033381;28;20208;-81
2023/01/26 05:37:10;;;;;;;30.43;13.70;;;;;;;0.19;100.00;98545.84;5033675;28;20288;-81
2023/01/26 05:39:36;;;;;;;32.07;13.50;;;;;;;0.18;100.00;98555.38;5032999;28;20698;-82
2023/01/26 05:42:03;;;;;;;25.47;13.10;;;;;;;0.12;100.00;98554.63;5033409;28;20240;-81
2023/01/26 05:44:29;;;;;;;28.47;13.70;;;;;;;0.06;100.00;98559.97;5033240;28;20216;-82
2023/01/26 05:46:57;;;;;;;25.47;14.07;;;;;;;0.07;100.00;98562.53;5032967;28;20232;-81
2023/01/26 05:49:24;;;;;;;25.13;13.47;;;;;;;0.10;100.00;98552.09;5032983;28;20212;-82
2023/01/26 05:51:50;;;;;;;24.43;12.60;;;;;;;0.06;100.00;98560.84;5033384;28;20201;-82
2023/01/26 05:54:17;;;;;;;25.07;13.90;;;;;;;0.05;100.00;98559.13;5033291;28;20211;-82
2023/01/26 05:56:43;;;;;;;24.90;13.13;;;;;;;0.01;100.00;98560.06;5033170;28;20235;-81
2023/01/26 05:59:10;;;;;;;23.73;13.20;;;;;;;-0.04;100.00;98561.06;5032944;28;20311;-82
2023/01/26 06:01:36;;;;;;;27.27;13.10;;;;;;;-0.10;100.00;98563.78;5032901;28;20232;-81
2023/01/26 06:04:04;;;;;;;26.30;13.37;;;;;;;-0.08;100.00;98562.88;5032955;28;20220;-81
2023/01/26 06:06:31;;;;;;;26.43;13.40;;;;;;;-0.06;100.00;98561.09;5032904;28;20236;-81
2023/01/26 06:08:58;;;;;;;26.50;13.27;;;;;;;-0.08;100.00;98568.06;5032376;28;20323;-81
2023/01/26 06:11:25;;;;;;;22.83;12.83;;;;;;;-0.04;100.00;98559.31;5033008;28;20322;-81
2023/01/26 06:13:51;;;;;;;22.73;12.60;;;;;;;-0.06;100.00;98555.06;5033021;28;20207;-81
2023/01/26 06:16:18;;;;;;;28.67;12.70;;;;;;;-0.12;100.00;98556.03;5033007;28;20667;-82
2023/01/26 06:18:47;;;;;;;23.80;12.23;;;;;;;-0.12;100.00;98561.22;5033306;28;20240;-81
2023/01/26 06:21:15;;;;;;;25.20;12.67;;;;;;;-0.17;100.00;98565.63;5033123;28;20235;-81
2023/01/26 06:23:42;;;;;;;23.63;12.70;;;;;;;-0.17;100.00;98570.00;5032626;28;20235;-81
2023/01/26 06:26:08;;;;;;;25.57;12.43;;;;;;;-0.16;100.00;98569.09;5032872;28;20579;-81
2023/01/26 06:28:35;;;;;;;23.60;12.30;;;;;;;-0.13;100.00;98568.19;5032636;28;20217;-82
2023/01/26 06:31:03;;;;;;;24.40;13.10;;;;;;;-0.10;100.00;98569.81;5032627;28;20213;-83
2023/01/26 06:33:29;;;;;;;23.30;12.50;;;;;;;-0.08;100.00;98581.94;5032596;28;20204;-82
2023/01/26 06:35:56;;;;;;;24.73;12.80;;;;;;;-0.06;100.00;98574.06;5032549;28;20609;-81
2023/01/26 06:38:24;;;;;;;23.13;12.97;;;;;;;-0.08;100.00;98568.06;5032624;28;20474;-82
2023/01/26 06:40:51;;;;;;;24.00;12.93;;;;;;;0.00;100.00;98576.56;5032071;28;20228;-82
2023/01/26 06:43:17;;;;;;;27.40;13.37;;;;;;;-0.02;100.00;98572.28;5032288;28;20283;-82
2023/01/26 06:45:45;;;;;;;27.23;13.57;;;;;;;-0.09;100.00;98565.50;5032030;28;20729;-82
2023/01/26 06:48:12;;;;;;;25.10;12.93;;;;;;;-0.08;100.00;98567.19;5032495;28;20208;-82
2023/01/26 06:50:39;;;;;;;27.30;14.20;;;;;;;-0.03;100.00;98571.44;5031892;28;20212;-81
2023/01/26 06:53:28;;;;;;;28.93;13.37;;;;;;;-0.02;100.00;98572.28;5031995;28;20209;-81
2023/01/26 06:55:55;;;;;;;25.93;12.67;;;;;;;0.03;100.00;98573.03;5031983;28;20239;-83
2023/01/26 06:58:21;;;;;;;19.27;10.97;;;;;;;-0.01;100.00;98569.66;5032282;28;20223;-82
2023/01/26 07:00:48;;;;;;;24.33;12.17;;;;;;;-0.05;100.00;98573.19;5031920;28;20213;-81
2023/01/26 07:03:14;;;;;;;25.00;13.27;;;;;;;-0.06;100.00;98570.66;5032117;28;20212;-82
2023/01/26 07:05:41;;;;;;;22.93;12.37;;;;;;;-0.01;100.00;98573.97;5032166;28;20243;-81
2023/01/26 07:08:08;;;;;;;26.17;13.63;;;;;;;-0.04;100.00;98569.69;5031992;28;20224;-81
2023/01/26 07:10:36;;;;;;;25.53;13.27;;;;;;;-0.10;100.00;98568.97;5031414;28;20747;-81
2023/01/26 07:13:04;;;;;;;27.83;14.00;;;;;;;-0.13;100.00;98569.03;5031723;28;20205;-82
2023/01/26 07:15:30;;;;;;;26.27;12.90;;;;;;;-0.15;100.00;98576.00;5031892;28;20240;-81
2023/01/26 07:17:57;;;;;;;27.03;13.83;;;;;;;-0.12;100.00;98581.16;5031625;28;20673;-82
2023/01/26 07:20:24;;;;;;;25.50;13.47;;;;;;;-0.10;100.00;98584.56;5031118;28;20207;-81
2023/01/26 07:22:51;;;;;;;28.30;13.40;;;;;;;-0.12;100.00;98584.59;5031393;28;20309;-83
2023/01/26 07:25:18;;;;;;;27.43;13.60;;;;;;;-0.17;100.00;98584.72;5031655;28;20264;-82
2023/01/26 07:27:46;;;;;;;26.30;13.07;;;;;;;-0.15;100.00;98586.41;5031552;28;20209;-81
2023/01/26 07:30:14;;;;;;;26.53;12.40;;;;;;;-0.17;100.00;98594.22;5031379;28;20216;-83
2023/01/26 07:32:40;;;;;;;23.87;12.97;;;;;;;-0.21;100.00;98589.13;5031674;28;20390;-83
2023/01/26 07:35:08;;;;;;;26.00;12.53;;;;;;;-0.17;100.00;98583.00;5031432;28;20574;-83
2023/01/26 07:37:34;;;;;;;23.50;11.97;;;;;;;-0.23;100.00;98590.91;5031510;28;20215;-83
2023/01/26 07:40:02;;;;;;;26.67;12.50;;;;;;;-0.28;100.00;98588.38;5031616;28;20216;-81
2023/01/26 07:42:29;;;;;;;22.77;11.67;;;;;;;-0.26;100.00;98584.91;5031597;28;20326;-83
2023/01/26 07:44:58;;;;;;;27.50;13.43;;;;;;;-0.27;100.00;98581.44;5031499;28;20227;-83
2023/01/26 07:47:25;;;;;;;23.30;13.33;;;;;;;-0.18;100.00;98575.22;5031890;28;20270;-83
2023/01/26 07:49:51;;;;;;;26.93;13.70;;;;;;;-0.17;100.00;98581.22;5031750;28;20216;-83
2023/01/26 07:52:18;;;;;;;27.03;13.43;;;;;;;-0.17;100.00;98599.41;5032032;28;20219;-83
2023/01/26 07:54:44;;;;;;;23.00;11.63;;;;;;;-0.17;100.00;98581.22;5031900;28;20238;-83
2023/01/26 07:57:12;;;;;;;25.17;12.13;;;;;;;-0.17;100.00;98582.13;5032009;28;20216;-82
2023/01/26 07:59:38;;;;;;;26.47;11.90;;;;;;;-0.22;100.00;98580.47;5031436;28;20227;-81
2023/01/26 08:02:09;;;;;;;22.90;12.00;;;;;;;-0.20;100.00;98582.19;5031398;28;20228;-82
2023/01/26 08:04:35;;;;;;;22.63;11.30;;;;;;;-0.26;100.00;98577.97;5031968;28;20212;-82
2023/01/26 08:07:02;;;;;;;26.30;13.27;;;;;;;-0.24;100.00;98580.53;5031753;28;20212;-82
2023/01/26 08:09:28;;;;;;;24.73;11.90;;;;;;;-0.19;100.00;98589.09;5031205;28;20247;-82
2023/01/26 08:11:56;;;;;;;23.17;12.17;;;;;;;-0.11;100.00;98588.91;5031946;28;20591;-82
2023/01/26 08:14:23;;;;;;;26.80;13.00;;;;;;;-0.12;100.00;98587.19;5031942;28;20209;-78
2023/01/26 08:16:49;;;;;;;26.10;12.10;;;;;;;-0.12;100.00;98584.59;5032082;28;20237;-91
2023/01/26 08:19:18;;;;;;;24.47;11.60;;;;;;;-0.16;100.00;98585.53;5032478;28;20208;-91
2023/01/26 08:21:44;;;;;;;25.57;13.63;;;;;;;-0.13;100.00;98586.38;5031331;28;20236;-80
2023/01/26 08:24:11;;;;;;;21.63;11.67;;;;;;;-0.19;100.00;98586.50;5031475;28;20209;-82
2023/01/26 08:26:37;;;;;;;21.67;10.53;;;;;;;-0.22;100.00;98583.94;5031535;28;20235;-81
2023/01/26 08:29:04;;;;;;;20.00;10.53;;;;;;;-0.23;100.00;98577.91;5031212;28;20215;-81
2023/01/26 08:31:32;;;;;;;24.20;11.77;;;;;;;-0.18;100.00;98583.00;5031245;28;20207;-82
2023/01/26 08:33:59;;;;;;;22.43;12.07;;;;;;;-0.20;100.00;98584.78;5034761;28;20213;-81
2023/01/26 08:36:27;;;;;;;25.33;12.40;;;;;;;-0.14;100.00;98571.69;5035504;28;20243;-80
2023/01/26 08:38:54;;;;;;;24.03;11.70;;;;;;;-0.10;100.00;98568.97;5035278;28;20209;-81
2023/01/26 08:41:20;;;;;;;22.17;10.97;;;;;;;-0.11;100.00;98570.72;5035078;28;20208;-81
2023/01/26 08:43:47;;;;;;;22.47;11.53;;;;;;;-0.06;100.00;98571.47;5035083;28;20208;-81
2023/01/26 08:46:14;;;;;;;19.93;11.00;;;;;;;-0.08;100.00;98570.66;5034823;28;20247;-80
2023/01/26 08:48:40;;;;;;;21.23;10.30;;;;;;;0.06;100.00;98566.03;5034932;28;20216;-80
2023/01/26 08:51:08;;;;;;;21.47;10.90;;;;;;;0.11;100.00;98576.31;5034484;28;20224;-80
2023/01/26 08:53:37;;;;;;;21.10;11.53;;;;;;;0.08;100.00;98566.00;5034800;28;20208;-80
2023/01/26 08:56:05;;;;;;;21.40;10.43;;;;;;;0.03;100.00;98568.72;5034628;28;20232;-80
2023/01/26 08:58:32;;;;;;;21.77;11.03;;;;;;;-0.01;100.00;98569.66;5034811;28;20215;-80
2023/01/26 09:00:59;;;;;;;21.63;10.70;;;;;;;-0.04;100.00;98569.69;5034319;28;20205;-81
2023/01/26 09:03:25;;;;;;;23.27;11.47;;;;;;;-0.05;100.00;98568.00;5035201;28;20580;-81
2023/01/26 09:05:52;;;;;;;20.70;11.27;;;;;;;-0.02;100.00;98567.06;5034652;28;20235;-81
2023/01/26 09:08:18;;;;;;;24.90;11.33;;;;;;;0.02;100.00;98559.19;5038495;28;20212;-81
2023/01/26 09:10:46;;;;;;;23.13;12.10;;;;;;;0.09;100.00;98560.78;5046549;28;20213;-82
2023/01/26 09:13:12;;;;;;;25.07;11.30;;;;;;;0.13;100.00;98557.22;5045570;28;20212;-81
2023/01/26 09:15:39;;;;;;;25.13;12.40;;;;;;;0.13;100.00;98559.81;5046791;28;20228;-82
2023/01/26 09:18:06;;;;;;;25.80;12.67;;;;;;;0.17;100.00;98553.66;5047400;28;20220;-81
2023/01/26 09:20:32;;;;;;;24.37;12.17;;;;;;;0.31;100.00;98555.97;5047345;28;20212;-81
2023/01/26 09:22:59;;;;;;;26.10;14.15;;;;;;;0.25;100.00;98561.31;5047280;28;20441;-80
2023/01/26 09:25:25;;;;;;;22.87;11.80;;;;;;;0.27;100.00;98559.53;5041787;28;20334;-83
2023/01/26 09:27:53;;;;;;;21.20;11.60;;;;;;;0.26;100.00;98563.84;5032930;28;20216;-82
2023/01/26 09:30:19;;;;;;;19.03;10.63;;;;;;;0.30;100.00;98565.50;5033089;28;20223;-81
2023/01/26 09:32:46;;;;;;;20.33;10.47;;;;;;;0.24;100.00;98556.97;5032235;28;20213;-82
2023/01/26 09:35:12;;;;;;;20.57;10.70;;;;;;;0.22;100.00;98564.84;5031438;28;20240;-82
2023/01/26 09:37:39;;;;;;;22.37;11.30;;;;;;;0.23;100.00;98569.13;5014470;28;20212;-81
2023/01/26 09:40:08;;;;;;;20.93;10.80;;;;;;;0.21;100.00;98565.72;5016581;28;20578;-82
2023/01/26 09:42:55;;;;;;;20.77;10.50;;;;;;;0.19;100.00;98572.69;5032266;28;20249;-82
2023/01/26 09:45:31;;;;;;;20.77;10.10;;;;;;;0.21;100.00;98576.13;5019942;28;20249;-82
2023/01/26 09:48:21;;;;;;;19.93;10.10;;;;;;;0.19;100.00;98559.69;5013076;28;20591;-82
2023/01/26 09:50:52;;;;;;;17.83;9.77;;;;;;;0.13;100.00;98570.22;5012639;28;20220;-81
2023/01/26 09:53:24;;;;;;;15.83;9.07;;;;;;;0.19;100.00;98559.69;5012917;28;20206;-81
2023/01/26 09:55:51;;;;;;;17.43;9.60;;;;;;;0.12;100.00;98559.84;5012874;28;20233;-76
2023/01/26 09:58:31;;;;;;;17.17;9.43;;;;;;;0.12;100.00;98560.72;5012701;28;20220;-83
2023/01/26 10:01:02;;;;;;;17.30;9.90;;;;;;;0.13;100.00;98557.22;5012439;28;20223;-82
2023/01/26 10:03:34;;;;;;;17.00;8.87;;;;;;;0.15;100.00;98565.84;5012250;28;20282;-78
2023/01/26 10:06:07;;;;;;;15.73;8.70;;;;;;;0.24;100.00;98565.63;5012164;28;20237;-77
2023/01/26 10:08:34;;;;;;;18.33;9.47;;;;;;;0.25;100.00;98566.50;5012372;28;20228;-81
2023/01/26 10:11:05;;;;;;;17.93;9.20;;;;;;;0.16;100.00;98567.56;5012228;28;20212;-82
2023/01/26 10:13:31;;;;;;;18.57;8.90;;;;;;;0.13;100.00;98562.41;5012111;28;20600;-82
2023/01/26 10:16:05;;;;;;;16.47;9.40;;;;;;;0.24;100.00;98562.19;5012172;28;20240;-82
2023/01/26 10:18:36;;;;;;;14.07;7.67;;;;;;;0.19;100.00;98561.44;5012477;28;20213;-82
2023/01/26 10:21:06;;;;;;;18.30;9.13;;;;;;;0.20;100.00;98547.56;5012305;28;20193;-82
2023/01/26 10:23:34;;;;;;;20.13;9.57;;;;;;;0.15;100.00;98549.41;5011955;28;20238;-82
2023/01/26 10:26:14;;;;;;;18.77;9.73;;;;;;;0.09;100.00;98554.72;5012130;28;20618;-81
2023/01/26 10:28:43;;;;;;;19.57;9.47;;;;;;;0.15;100.00;98558.06;5012243;28;20223;-81
2023/01/26 10:31:15;;;;;;;15.83;8.77;;;;;;;0.16;100.00;98551.97;5012057;28;20667;-81
2023/01/26 10:33:45;;;;;;;14.97;7.87;;;;;;;0.19;100.00;98551.88;5014545;28;20209;-81
2023/01/26 10:36:12;;;;;;;17.47;7.93;;;;;;;0.11;100.00;98559.00;5030194;28;20478;-81
2023/01/26 10:38:41;;;;;;;15.57;8.57;;;;;;;0.16;100.00;98551.97;5025565;28;20220;-82
2023/01/26 10:41:22;;;;;;;16.40;8.23;;;;;;;0.27;100.00;98560.41;5012082;28;20275;-81
2023/01/26 10:43:54;;;;;;;15.87;8.80;;;;;;;0.24;100.00;98550.03;5011830;28;20239;-81
2023/01/26 10:46:34;;;;;;;14.47;8.50;;;;;;;0.28;100.00;98546.50;5025764;23;20238;-81
2023/01/26 10:49:02;;;;;;;12.50;6.73;;;;;;;0.28;100.00;98546.50;5009571;28;20215;-80
2023/01/26 10:51:31;;;;;;;13.00;6.90;;;;;;;0.32;100.00;98536.88;5011145;28;20227;-80
2023/01/26 10:54:24;;;;;;;14.70;7.83;;;;;;;0.23;100.00;98543.13;5011279;28;20211;-80
2023/01/26 10:56:53;;;;;;;12.27;7.10;;;;;;;0.27;100.00;98538.72;5011478;28;20233;-79
2023/01/26 10:59:27;;;;;;;12.33;6.93;;;;;;;0.27;100.00;98541.31;5011257;28;20588;-79
2023/01/26 11:02:01;;;;;;;12.60;7.17;;;;;;;0.32;100.00;98542.09;5011025;28;20213;-79
2023/01/26 11:04:29;;;;;;;13.13;7.40;;;;;;;0.30;100.00;98534.31;5011503;28;20230;-80
2023/01/26 11:06:56;;;;;;;12.23;7.00;;;;;;;0.28;100.00;98536.09;5011248;28;20237;-79
2023/01/26 11:09:26;;;;;;;15.40;7.73;;;;;;;0.24;100.00;98533.59;5010509;28;20226;-79
2023/01/26 11:12:01;;;;;;;14.47;8.23;;;;;;;0.19;100.00;98531.09;5010635;28;20205;-79
2023/01/26 11:14:29;;;;;;;13.43;7.00;;;;;;;0.21;100.00;98534.53;5010654;28;20212;-79
2023/01/26 11:17:14;;;;;;;13.33;6.93;;;;;;;0.21;100.00;98528.47;5010599;28;20241;-80
2023/01/26 11:20:00;;;;;;;13.63;7.30;;;;;;;0.18;100.00;98529.38;5011034;28;20215;-79
2023/01/26 11:22:33;;;;;;;15.20;7.83;;;;;;;0.19;100.00;98531.09;5011172;28;20209;-79
2023/01/26 11:25:11;;;;;;;15.23;8.07;;;;;;;0.27;100.00;98530.94;5011421;28;20302;-79
2023/01/26 11:27:46;;;;;;;13.23;7.90;;;;;;;0.31;100.00;98525.63;5011155;28;20209;-80
2023/01/26 11:30:29;;;;;;;16.03;8.87;;;;;;;0.30;100.00;98528.25;5010759;28;20223;-79
2023/01/26 11:33:03;;;;;;;15.60;8.33;;;;;;;0.19;100.00;98514.66;5010987;28;20223;-80
2023/01/26 11:35:37;;;;;;;16.00;8.27;;;;;;;0.21;100.00;98518.94;5009902;28;20228;-79
2023/01/26 11:38:22;;;;;;;13.27;7.53;;;;;;;0.23;100.00;98511.94;5010385;28;20220;-79
2023/01/26 11:41:02;;;;;;;15.53;8.30;;;;;;;0.35;100.00;98516.00;5010544;28;20209;-82
2023/01/26 11:43:50;;;;;;;15.27;8.27;;;;;;;0.34;100.00;98509.97;5010236;28;20261;-80
2023/01/26 11:46:39;;;;;;;12.07;6.90;;;;;;;0.33;100.00;98502.19;5010742;28;20244;-83
2023/01/26 11:49:22;;;;;;;14.77;8.45;;;;;;;0.34;100.00;98502.16;5010725;28;20442;-77
2023/01/26 11:52:01;;;;;;;15.40;8.37;;;;;;;0.24;100.00;98498.06;5011402;28;20677;-80
2023/01/26 11:54:58;;;;;;;13.63;7.83;;;;;;;0.19;100.00;98499.06;5011743;28;20274;-81
2023/01/26 11:57:32;;;;;;;14.50;8.30;;;;;;;0.16;100.00;98505.19;5011481;28;20231;-81
2023/01/26 12:00:04;;;;;;;16.10;8.73;;;;;;;0.29;100.00;98498.81;5011129;28;20214;-81
2023/01/26 12:02:33;;;;;;;13.27;8.30;;;;;;;0.22;100.00;98489.47;5011450;28;20236;-81
2023/01/26 12:05:13;;;;;;;14.83;8.37;;;;;;;0.20;100.00;98480.81;5011439;28;20216;-81
2023/01/26 12:07:53;;;;;;;14.27;8.50;;;;;;;0.12;100.00;98482.75;5012787;28;20212;-82
2023/01/26 12:10:23;;;;;;;16.80;8.67;;;;;;;0.07;100.00;98483.75;5015049;28;20212;-77
2023/01/26 12:12:59;;;;;;;17.57;9.27;;;;;;;0.04;100.00;98479.47;5015424;28;20271;-77
2023/01/26 12:15:30;;;;;;;15.40;8.80;;;;;;;0.08;100.00;98481.09;5015374;28;20348;-77
2023/01/26 12:17:59;;;;;;;20.17;10.13;;;;;;;0.08;100.00;98481.09;5015217;28;20212;-77